sensor_id;sensor_type;location;lat;lon;timestamp;P1;durP1;ratioP1;P2;durP2;ratioP2
9940;SDS011;5009;50.656;7.188;2024-01-06T00:01:28;4.77;;;3.10;;
9940;SDS011;5009;50.656;7.188;2024-01-06T00:03:54;2.60;;;2.40;;
9940;SDS011;5009;50.656;7.188;2024-01-06T00:06:20;2.77;;;2.30;;
9940;SDS011;5009;50.656;7.188;2024-01-06T00:08:46;2.83;;;2.50;;
9940;SDS011;5009;50.656;7.188;2024-01-06T00:11:18;2.33;;;2.13;;
9940;SDS011;5009;50.656;7.188;2024-01-06T00:13:44;2.20;;;1.83;;
9940;SDS011;5009;50.656;7.188;2024-01-06T00:16:10;2.27;;;1.90;;
9940;SDS011;5009;50.656;7.188;2024-01-06T00:18:35;2.77;;;2.07;;
9940;SDS011;5009;50.656;7.188;2024-01-06T00:21:01;1.40;;;1.40;;
9940;SDS011;5009;50.656;7.188;2024-01-06T00:23:26;1.40;;;1.40;;
9940;SDS011;5009;50.656;7.188;2024-01-06T00:25:52;1.20;;;1.20;;
9940;SDS011;5009;50.656;7.188;2024-01-06T00:28:17;1.70;;;1.60;;
9940;SDS011;5009;50.656;7.188;2024-01-06T00:30:43;1.40;;;1.30;;
9940;SDS011;5009;50.656;7.188;2024-01-06T00:33:08;1.40;;;1.30;;
9940;SDS011;5009;50.656;7.188;2024-01-06T00:35:34;1.30;;;1.20;;
9940;SDS011;5009;50.656;7.188;2024-01-06T00:37:59;2.17;;;1.53;;
9940;SDS011;5009;50.656;7.188;2024-01-06T00:40:25;1.57;;;1.47;;
9940;SDS011;5009;50.656;7.188;2024-01-06T00:42:51;1.07;;;1.00;;
9940;SDS011;5009;50.656;7.188;2024-01-06T00:45:16;1.23;;;1.13;;
9940;SDS011;5009;50.656;7.188;2024-01-06T00:47:42;1.53;;;1.43;;
9940;SDS011;5009;50.656;7.188;2024-01-06T00:50:08;1.50;;;1.40;;
9940;SDS011;5009;50.656;7.188;2024-01-06T00:52:34;1.33;;;1.30;;
9940;SDS011;5009;50.656;7.188;2024-01-06T00:54:59;1.30;;;1.20;;
9940;SDS011;5009;50.656;7.188;2024-01-06T00:57:25;1.30;;;1.20;;
9940;SDS011;5009;50.656;7.188;2024-01-06T00:59:50;1.40;;;1.30;;
9940;SDS011;5009;50.656;7.188;2024-01-06T01:02:16;1.40;;;1.30;;
9940;SDS011;5009;50.656;7.188;2024-01-06T01:04:42;1.40;;;1.30;;
9940;SDS011;5009;50.656;7.188;2024-01-06T01:07:07;1.57;;;1.47;;
9940;SDS011;5009;50.656;7.188;2024-01-06T01:09:33;1.60;;;1.50;;
9940;SDS011;5009;50.656;7.188;2024-01-06T01:11:59;1.50;;;1.40;;
9940;SDS011;5009;50.656;7.188;2024-01-06T01:14:25;1.40;;;1.30;;
9940;SDS011;5009;50.656;7.188;2024-01-06T01:16:51;1.50;;;1.40;;
9940;SDS011;5009;50.656;7.188;2024-01-06T01:19:16;2.77;;;1.63;;
9940;SDS011;5009;50.656;7.188;2024-01-06T01:21:42;1.40;;;1.30;;
9940;SDS011;5009;50.656;7.188;2024-01-06T01:24:07;1.67;;;1.53;;
9940;SDS011;5009;50.656;7.188;2024-01-06T01:26:33;2.17;;;1.97;;
9940;SDS011;5009;50.656;7.188;2024-01-06T01:28:58;2.60;;;2.40;;
9940;SDS011;5009;50.656;7.188;2024-01-06T01:31:24;2.77;;;2.40;;
9940;SDS011;5009;50.656;7.188;2024-01-06T01:33:49;3.97;;;2.67;;
9940;SDS011;5009;50.656;7.188;2024-01-06T01:36:15;3.67;;;2.30;;
9940;SDS011;5009;50.656;7.188;2024-01-06T01:38:42;3.60;;;2.10;;
9940;SDS011;5009;50.656;7.188;2024-01-06T01:41:08;2.30;;;2.10;;
9940;SDS011;5009;50.656;7.188;2024-01-06T01:43:33;3.77;;;2.50;;
9940;SDS011;5009;50.656;7.188;2024-01-06T01:45:59;2.30;;;2.03;;
9940;SDS011;5009;50.656;7.188;2024-01-06T01:48:26;2.20;;;2.10;;
9940;SDS011;5009;50.656;7.188;2024-01-06T01:50:52;2.40;;;2.10;;
9940;SDS011;5009;50.656;7.188;2024-01-06T01:53:18;1.63;;;1.53;;
9940;SDS011;5009;50.656;7.188;2024-01-06T01:55:45;2.30;;;1.93;;
9940;SDS011;5009;50.656;7.188;2024-01-06T01:58:12;4.13;;;1.67;;
9940;SDS011;5009;50.656;7.188;2024-01-06T02:00:38;2.20;;;1.40;;
9940;SDS011;5009;50.656;7.188;2024-01-06T02:03:05;2.10;;;1.50;;
9940;SDS011;5009;50.656;7.188;2024-01-06T02:05:31;2.27;;;1.70;;
9940;SDS011;5009;50.656;7.188;2024-01-06T02:07:57;1.53;;;1.50;;
9940;SDS011;5009;50.656;7.188;2024-01-06T02:10:22;1.43;;;1.33;;
9940;SDS011;5009;50.656;7.188;2024-01-06T02:12:48;1.30;;;1.20;;
9940;SDS011;5009;50.656;7.188;2024-01-06T02:15:16;1.17;;;1.07;;
9940;SDS011;5009;50.656;7.188;2024-01-06T02:17:42;1.23;;;1.23;;
9940;SDS011;5009;50.656;7.188;2024-01-06T02:20:08;1.40;;;1.30;;
9940;SDS011;5009;50.656;7.188;2024-01-06T02:22:35;1.33;;;1.17;;
9940;SDS011;5009;50.656;7.188;2024-01-06T02:25:01;1.30;;;1.20;;
9940;SDS011;5009;50.656;7.188;2024-01-06T02:27:32;1.53;;;1.17;;
9940;SDS011;5009;50.656;7.188;2024-01-06T02:29:58;1.63;;;1.53;;
9940;SDS011;5009;50.656;7.188;2024-01-06T02:32:23;2.00;;;1.23;;
9940;SDS011;5009;50.656;7.188;2024-01-06T02:34:49;1.60;;;1.50;;
9940;SDS011;5009;50.656;7.188;2024-01-06T02:37:14;2.00;;;1.80;;
9940;SDS011;5009;50.656;7.188;2024-01-06T02:39:40;1.83;;;1.73;;
9940;SDS011;5009;50.656;7.188;2024-01-06T02:42:05;1.20;;;1.20;;
9940;SDS011;5009;50.656;7.188;2024-01-06T02:44:31;2.57;;;1.77;;
9940;SDS011;5009;50.656;7.188;2024-01-06T02:46:56;1.40;;;1.30;;
9940;SDS011;5009;50.656;7.188;2024-01-06T02:49:22;1.60;;;1.50;;
9940;SDS011;5009;50.656;7.188;2024-01-06T02:51:47;1.50;;;1.43;;
9940;SDS011;5009;50.656;7.188;2024-01-06T02:54:13;2.07;;;1.60;;
9940;SDS011;5009;50.656;7.188;2024-01-06T02:56:38;1.47;;;1.40;;
9940;SDS011;5009;50.656;7.188;2024-01-06T02:59:04;1.70;;;1.60;;
9940;SDS011;5009;50.656;7.188;2024-01-06T03:01:31;1.60;;;1.50;;
9940;SDS011;5009;50.656;7.188;2024-01-06T03:03:56;1.50;;;1.40;;
9940;SDS011;5009;50.656;7.188;2024-01-06T03:06:22;1.83;;;1.73;;
9940;SDS011;5009;50.656;7.188;2024-01-06T03:08:47;2.00;;;1.90;;
9940;SDS011;5009;50.656;7.188;2024-01-06T03:11:13;1.67;;;1.57;;
9940;SDS011;5009;50.656;7.188;2024-01-06T03:13:39;1.93;;;1.83;;
9940;SDS011;5009;50.656;7.188;2024-01-06T03:16:05;2.33;;;2.10;;
9940;SDS011;5009;50.656;7.188;2024-01-06T03:18:30;2.07;;;1.90;;
9940;SDS011;5009;50.656;7.188;2024-01-06T03:20:56;1.80;;;1.70;;
9940;SDS011;5009;50.656;7.188;2024-01-06T03:23:21;2.00;;;1.90;;
9940;SDS011;5009;50.656;7.188;2024-01-06T03:25:47;1.73;;;1.63;;
9940;SDS011;5009;50.656;7.188;2024-01-06T03:28:12;2.13;;;1.90;;
9940;SDS011;5009;50.656;7.188;2024-01-06T03:30:38;2.47;;;2.13;;
9940;SDS011;5009;50.656;7.188;2024-01-06T03:33:04;2.43;;;2.23;;
9940;SDS011;5009;50.656;7.188;2024-01-06T03:35:30;2.43;;;2.23;;
9940;SDS011;5009;50.656;7.188;2024-01-06T03:37:56;2.37;;;2.27;;
9940;SDS011;5009;50.656;7.188;2024-01-06T03:40:21;2.70;;;2.50;;
9940;SDS011;5009;50.656;7.188;2024-01-06T03:42:47;2.53;;;2.37;;
9940;SDS011;5009;50.656;7.188;2024-01-06T03:45:13;2.60;;;2.40;;
9940;SDS011;5009;50.656;7.188;2024-01-06T03:47:38;2.70;;;2.50;;
9940;SDS011;5009;50.656;7.188;2024-01-06T03:50:04;3.03;;;2.77;;
9940;SDS011;5009;50.656;7.188;2024-01-06T03:52:30;2.50;;;2.30;;
9940;SDS011;5009;50.656;7.188;2024-01-06T03:54:55;3.37;;;2.60;;
9940;SDS011;5009;50.656;7.188;2024-01-06T03:57:21;2.73;;;2.53;;
9940;SDS011;5009;50.656;7.188;2024-01-06T03:59:46;3.10;;;2.90;;
9940;SDS011;5009;50.656;7.188;2024-01-06T04:02:12;2.73;;;2.53;;
9940;SDS011;5009;50.656;7.188;2024-01-06T04:04:37;2.90;;;2.70;;
9940;SDS011;5009;50.656;7.188;2024-01-06T04:07:03;3.00;;;2.80;;
9940;SDS011;5009;50.656;7.188;2024-01-06T04:09:28;2.90;;;2.70;;
9940;SDS011;5009;50.656;7.188;2024-01-06T04:11:54;3.03;;;2.83;;
9940;SDS011;5009;50.656;7.188;2024-01-06T04:14:19;2.63;;;2.40;;
9940;SDS011;5009;50.656;7.188;2024-01-06T04:16:45;2.60;;;2.40;;
9940;SDS011;5009;50.656;7.188;2024-01-06T04:19:11;2.80;;;2.60;;
9940;SDS011;5009;50.656;7.188;2024-01-06T04:21:37;2.77;;;2.57;;
9940;SDS011;5009;50.656;7.188;2024-01-06T04:24:03;4.40;;;2.70;;
9940;SDS011;5009;50.656;7.188;2024-01-06T04:26:29;3.00;;;2.70;;
9940;SDS011;5009;50.656;7.188;2024-01-06T04:28:54;3.00;;;2.77;;
9940;SDS011;5009;50.656;7.188;2024-01-06T04:31:20;3.17;;;2.97;;
9940;SDS011;5009;50.656;7.188;2024-01-06T04:33:45;2.90;;;2.70;;
9940;SDS011;5009;50.656;7.188;2024-01-06T04:36:11;3.17;;;2.87;;
9940;SDS011;5009;50.656;7.188;2024-01-06T04:38:36;3.30;;;3.00;;
9940;SDS011;5009;50.656;7.188;2024-01-06T04:41:02;4.53;;;2.67;;
9940;SDS011;5009;50.656;7.188;2024-01-06T04:43:28;3.43;;;2.70;;
9940;SDS011;5009;50.656;7.188;2024-01-06T04:45:53;3.53;;;2.53;;
9940;SDS011;5009;50.656;7.188;2024-01-06T04:48:19;6.10;;;3.10;;
9940;SDS011;5009;50.656;7.188;2024-01-06T04:50:44;3.03;;;2.83;;
9940;SDS011;5009;50.656;7.188;2024-01-06T04:53:10;3.17;;;2.87;;
9940;SDS011;5009;50.656;7.188;2024-01-06T04:55:35;3.13;;;2.90;;
9940;SDS011;5009;50.656;7.188;2024-01-06T04:58:01;4.97;;;2.90;;
9940;SDS011;5009;50.656;7.188;2024-01-06T05:00:26;3.13;;;2.93;;
9940;SDS011;5009;50.656;7.188;2024-01-06T05:02:52;3.00;;;2.77;;
9940;SDS011;5009;50.656;7.188;2024-01-06T05:05:17;3.10;;;2.90;;
9940;SDS011;5009;50.656;7.188;2024-01-06T05:07:43;3.77;;;3.10;;
9940;SDS011;5009;50.656;7.188;2024-01-06T05:10:09;3.30;;;3.00;;
9940;SDS011;5009;50.656;7.188;2024-01-06T05:12:34;4.33;;;3.17;;
9940;SDS011;5009;50.656;7.188;2024-01-06T05:15:00;2.80;;;2.53;;
9940;SDS011;5009;50.656;7.188;2024-01-06T05:17:25;3.13;;;2.80;;
9940;SDS011;5009;50.656;7.188;2024-01-06T05:19:51;3.90;;;3.00;;
9940;SDS011;5009;50.656;7.188;2024-01-06T05:22:17;3.03;;;2.83;;
9940;SDS011;5009;50.656;7.188;2024-01-06T05:24:43;3.77;;;2.53;;
9940;SDS011;5009;50.656;7.188;2024-01-06T05:27:09;3.40;;;3.20;;
9940;SDS011;5009;50.656;7.188;2024-01-06T05:29:35;2.87;;;2.67;;
9940;SDS011;5009;50.656;7.188;2024-01-06T05:32:00;3.10;;;2.80;;
9940;SDS011;5009;50.656;7.188;2024-01-06T05:34:26;3.20;;;2.90;;
9940;SDS011;5009;50.656;7.188;2024-01-06T05:36:52;4.53;;;3.33;;
9940;SDS011;5009;50.656;7.188;2024-01-06T05:39:18;3.13;;;2.90;;
9940;SDS011;5009;50.656;7.188;2024-01-06T05:41:43;3.50;;;3.20;;
9940;SDS011;5009;50.656;7.188;2024-01-06T05:44:09;3.40;;;3.10;;
9940;SDS011;5009;50.656;7.188;2024-01-06T05:46:34;3.40;;;3.10;;
9940;SDS011;5009;50.656;7.188;2024-01-06T05:49:00;3.30;;;3.00;;
9940;SDS011;5009;50.656;7.188;2024-01-06T05:51:25;3.47;;;3.03;;
9940;SDS011;5009;50.656;7.188;2024-01-06T05:53:51;3.80;;;2.90;;
9940;SDS011;5009;50.656;7.188;2024-01-06T05:56:26;3.50;;;3.20;;
9940;SDS011;5009;50.656;7.188;2024-01-06T05:58:52;3.27;;;3.00;;
9940;SDS011;5009;50.656;7.188;2024-01-06T06:01:18;2.93;;;2.73;;
9940;SDS011;5009;50.656;7.188;2024-01-06T06:03:44;3.33;;;3.10;;
9940;SDS011;5009;50.656;7.188;2024-01-06T06:06:11;3.53;;;2.90;;
9940;SDS011;5009;50.656;7.188;2024-01-06T06:08:36;3.40;;;3.10;;
9940;SDS011;5009;50.656;7.188;2024-01-06T06:11:02;3.40;;;3.20;;
9940;SDS011;5009;50.656;7.188;2024-01-06T06:13:30;4.50;;;3.03;;
9940;SDS011;5009;50.656;7.188;2024-01-06T06:15:56;3.63;;;3.20;;
9940;SDS011;5009;50.656;7.188;2024-01-06T06:18:22;3.53;;;3.10;;
9940;SDS011;5009;50.656;7.188;2024-01-06T06:20:48;4.10;;;3.77;;
9940;SDS011;5009;50.656;7.188;2024-01-06T06:23:13;4.47;;;3.90;;
9940;SDS011;5009;50.656;7.188;2024-01-06T06:25:39;4.83;;;4.43;;
9940;SDS011;5009;50.656;7.188;2024-01-06T06:28:04;5.73;;;4.60;;
9940;SDS011;5009;50.656;7.188;2024-01-06T06:30:31;5.57;;;4.93;;
9940;SDS011;5009;50.656;7.188;2024-01-06T06:32:57;5.27;;;4.77;;
9940;SDS011;5009;50.656;7.188;2024-01-06T06:35:23;5.47;;;4.93;;
9940;SDS011;5009;50.656;7.188;2024-01-06T06:37:49;6.37;;;5.37;;
9940;SDS011;5009;50.656;7.188;2024-01-06T06:40:14;6.07;;;5.47;;
9940;SDS011;5009;50.656;7.188;2024-01-06T06:42:40;5.87;;;5.33;;
9940;SDS011;5009;50.656;7.188;2024-01-06T06:45:06;6.47;;;5.87;;
9940;SDS011;5009;50.656;7.188;2024-01-06T06:47:32;7.40;;;6.23;;
9940;SDS011;5009;50.656;7.188;2024-01-06T06:49:57;7.40;;;6.53;;
9940;SDS011;5009;50.656;7.188;2024-01-06T06:52:23;8.13;;;7.13;;
9940;SDS011;5009;50.656;7.188;2024-01-06T06:54:48;8.33;;;7.53;;
9940;SDS011;5009;50.656;7.188;2024-01-06T06:57:14;15.00;;;12.97;;
9940;SDS011;5009;50.656;7.188;2024-01-06T06:59:40;17.97;;;14.20;;
9940;SDS011;5009;50.656;7.188;2024-01-06T07:02:06;16.93;;;15.03;;
9940;SDS011;5009;50.656;7.188;2024-01-06T07:04:32;17.27;;;15.20;;
9940;SDS011;5009;50.656;7.188;2024-01-06T07:06:57;18.33;;;14.67;;
9940;SDS011;5009;50.656;7.188;2024-01-06T07:09:23;19.10;;;15.47;;
9940;SDS011;5009;50.656;7.188;2024-01-06T07:11:49;23.23;;;17.83;;
9940;SDS011;5009;50.656;7.188;2024-01-06T07:14:15;20.73;;;16.90;;
9940;SDS011;5009;50.656;7.188;2024-01-06T07:16:41;19.50;;;17.03;;
9940;SDS011;5009;50.656;7.188;2024-01-06T07:19:06;20.43;;;17.43;;
9940;SDS011;5009;50.656;7.188;2024-01-06T07:21:32;21.53;;;16.97;;
9940;SDS011;5009;50.656;7.188;2024-01-06T07:23:57;19.57;;;16.47;;
9940;SDS011;5009;50.656;7.188;2024-01-06T07:26:23;20.43;;;16.80;;
9940;SDS011;5009;50.656;7.188;2024-01-06T07:28:48;20.80;;;17.30;;
9940;SDS011;5009;50.656;7.188;2024-01-06T07:31:14;20.87;;;16.87;;
9940;SDS011;5009;50.656;7.188;2024-01-06T07:33:40;18.50;;;15.80;;
9940;SDS011;5009;50.656;7.188;2024-01-06T07:36:05;19.40;;;15.97;;
9940;SDS011;5009;50.656;7.188;2024-01-06T07:38:31;18.27;;;15.83;;
9940;SDS011;5009;50.656;7.188;2024-01-06T07:40:57;17.53;;;15.27;;
9940;SDS011;5009;50.656;7.188;2024-01-06T07:43:22;16.67;;;14.80;;
9940;SDS011;5009;50.656;7.188;2024-01-06T07:45:48;17.27;;;14.63;;
9940;SDS011;5009;50.656;7.188;2024-01-06T07:48:14;17.67;;;14.53;;
9940;SDS011;5009;50.656;7.188;2024-01-06T07:50:40;17.20;;;14.03;;
9940;SDS011;5009;50.656;7.188;2024-01-06T07:53:05;17.53;;;14.53;;
9940;SDS011;5009;50.656;7.188;2024-01-06T07:55:31;16.87;;;14.67;;
9940;SDS011;5009;50.656;7.188;2024-01-06T07:57:56;15.80;;;13.37;;
9940;SDS011;5009;50.656;7.188;2024-01-06T08:00:22;16.23;;;13.70;;
9940;SDS011;5009;50.656;7.188;2024-01-06T08:02:47;16.47;;;13.97;;
9940;SDS011;5009;50.656;7.188;2024-01-06T08:05:13;15.33;;;13.27;;
9940;SDS011;5009;50.656;7.188;2024-01-06T08:07:39;15.63;;;13.53;;
9940;SDS011;5009;50.656;7.188;2024-01-06T08:10:05;17.33;;;13.80;;
9940;SDS011;5009;50.656;7.188;2024-01-06T08:12:31;16.43;;;13.77;;
9940;SDS011;5009;50.656;7.188;2024-01-06T08:14:56;17.10;;;13.53;;
9940;SDS011;5009;50.656;7.188;2024-01-06T08:17:22;17.57;;;12.93;;
9940;SDS011;5009;50.656;7.188;2024-01-06T08:19:48;15.00;;;12.00;;
9940;SDS011;5009;50.656;7.188;2024-01-06T08:22:13;17.97;;;12.60;;
9940;SDS011;5009;50.656;7.188;2024-01-06T08:24:39;14.27;;;11.50;;
9940;SDS011;5009;50.656;7.188;2024-01-06T08:27:05;15.30;;;12.20;;
9940;SDS011;5009;50.656;7.188;2024-01-06T08:29:31;16.10;;;12.60;;
9940;SDS011;5009;50.656;7.188;2024-01-06T08:31:56;15.70;;;12.13;;
9940;SDS011;5009;50.656;7.188;2024-01-06T08:34:22;15.30;;;11.83;;
9940;SDS011;5009;50.656;7.188;2024-01-06T08:36:47;15.57;;;12.57;;
9940;SDS011;5009;50.656;7.188;2024-01-06T08:39:13;15.00;;;11.43;;
9940;SDS011;5009;50.656;7.188;2024-01-06T08:41:39;15.83;;;12.97;;
9940;SDS011;5009;50.656;7.188;2024-01-06T08:44:04;18.03;;;12.63;;
9940;SDS011;5009;50.656;7.188;2024-01-06T08:46:30;16.63;;;11.93;;
9940;SDS011;5009;50.656;7.188;2024-01-06T08:48:56;16.90;;;12.47;;
9940;SDS011;5009;50.656;7.188;2024-01-06T08:51:21;16.53;;;12.13;;
9940;SDS011;5009;50.656;7.188;2024-01-06T08:53:49;19.00;;;12.03;;
9940;SDS011;5009;50.656;7.188;2024-01-06T08:56:14;14.47;;;11.60;;
9940;SDS011;5009;50.656;7.188;2024-01-06T08:58:42;16.63;;;13.33;;
9940;SDS011;5009;50.656;7.188;2024-01-06T09:01:08;15.67;;;11.80;;
9940;SDS011;5009;50.656;7.188;2024-01-06T09:03:34;16.37;;;11.43;;
9940;SDS011;5009;50.656;7.188;2024-01-06T09:05:59;15.80;;;12.50;;
9940;SDS011;5009;50.656;7.188;2024-01-06T09:08:25;16.97;;;12.20;;
9940;SDS011;5009;50.656;7.188;2024-01-06T09:10:51;14.47;;;11.57;;
9940;SDS011;5009;50.656;7.188;2024-01-06T09:13:17;15.17;;;11.30;;
9940;SDS011;5009;50.656;7.188;2024-01-06T09:15:43;14.97;;;12.23;;
9940;SDS011;5009;50.656;7.188;2024-01-06T09:18:09;17.03;;;12.10;;
9940;SDS011;5009;50.656;7.188;2024-01-06T09:20:34;14.57;;;12.17;;
9940;SDS011;5009;50.656;7.188;2024-01-06T09:23:00;15.53;;;12.13;;
9940;SDS011;5009;50.656;7.188;2024-01-06T09:25:25;14.63;;;12.17;;
9940;SDS011;5009;50.656;7.188;2024-01-06T09:27:51;14.67;;;11.77;;
9940;SDS011;5009;50.656;7.188;2024-01-06T09:30:18;13.87;;;11.70;;
9940;SDS011;5009;50.656;7.188;2024-01-06T09:32:43;17.20;;;12.47;;
9940;SDS011;5009;50.656;7.188;2024-01-06T09:35:09;16.27;;;12.80;;
9940;SDS011;5009;50.656;7.188;2024-01-06T09:37:35;15.70;;;11.93;;
9940;SDS011;5009;50.656;7.188;2024-01-06T09:40:00;16.07;;;13.23;;
9940;SDS011;5009;50.656;7.188;2024-01-06T09:42:26;16.97;;;13.30;;
9940;SDS011;5009;50.656;7.188;2024-01-06T09:44:51;14.23;;;12.10;;
9940;SDS011;5009;50.656;7.188;2024-01-06T09:47:18;14.73;;;12.97;;
9940;SDS011;5009;50.656;7.188;2024-01-06T09:49:48;15.90;;;13.33;;
9940;SDS011;5009;50.656;7.188;2024-01-06T09:52:15;14.60;;;12.93;;
9940;SDS011;5009;50.656;7.188;2024-01-06T09:54:46;15.90;;;12.53;;
9940;SDS011;5009;50.656;7.188;2024-01-06T09:57:18;14.40;;;12.13;;
9940;SDS011;5009;50.656;7.188;2024-01-06T09:59:45;15.87;;;13.23;;
9940;SDS011;5009;50.656;7.188;2024-01-06T10:02:12;15.17;;;11.93;;
9940;SDS011;5009;50.656;7.188;2024-01-06T10:04:40;16.67;;;13.57;;
9940;SDS011;5009;50.656;7.188;2024-01-06T10:07:05;15.47;;;12.67;;
9940;SDS011;5009;50.656;7.188;2024-01-06T10:09:31;14.37;;;12.80;;
9940;SDS011;5009;50.656;7.188;2024-01-06T10:11:57;15.33;;;11.87;;
9940;SDS011;5009;50.656;7.188;2024-01-06T10:14:24;15.50;;;12.43;;
9940;SDS011;5009;50.656;7.188;2024-01-06T10:16:53;15.53;;;12.67;;
9940;SDS011;5009;50.656;7.188;2024-01-06T10:19:19;15.03;;;12.13;;
9940;SDS011;5009;50.656;7.188;2024-01-06T10:21:44;17.80;;;13.03;;
9940;SDS011;5009;50.656;7.188;2024-01-06T10:24:10;19.07;;;14.70;;
9940;SDS011;5009;50.656;7.188;2024-01-06T10:26:36;19.20;;;14.77;;
9940;SDS011;5009;50.656;7.188;2024-01-06T10:29:01;19.37;;;14.70;;
9940;SDS011;5009;50.656;7.188;2024-01-06T10:31:29;18.37;;;14.33;;
9940;SDS011;5009;50.656;7.188;2024-01-06T10:33:54;16.07;;;13.37;;
9940;SDS011;5009;50.656;7.188;2024-01-06T10:36:21;17.30;;;13.67;;
9940;SDS011;5009;50.656;7.188;2024-01-06T10:38:48;15.90;;;13.03;;
9940;SDS011;5009;50.656;7.188;2024-01-06T10:41:15;13.83;;;12.13;;
9940;SDS011;5009;50.656;7.188;2024-01-06T10:43:42;14.00;;;10.73;;
9940;SDS011;5009;50.656;7.188;2024-01-06T10:46:08;12.87;;;10.73;;
9940;SDS011;5009;50.656;7.188;2024-01-06T10:48:39;13.60;;;10.60;;
9940;SDS011;5009;50.656;7.188;2024-01-06T10:51:07;13.10;;;10.60;;
9940;SDS011;5009;50.656;7.188;2024-01-06T10:53:37;11.33;;;9.90;;
9940;SDS011;5009;50.656;7.188;2024-01-06T10:56:05;10.63;;;9.00;;
9940;SDS011;5009;50.656;7.188;2024-01-06T10:58:32;10.67;;;8.90;;
9940;SDS011;5009;50.656;7.188;2024-01-06T11:01:02;10.80;;;8.73;;
9940;SDS011;5009;50.656;7.188;2024-01-06T11:03:28;10.80;;;8.80;;
9940;SDS011;5009;50.656;7.188;2024-01-06T11:05:55;10.13;;;8.60;;
9940;SDS011;5009;50.656;7.188;2024-01-06T11:08:22;11.10;;;8.70;;
9940;SDS011;5009;50.656;7.188;2024-01-06T11:10:48;11.67;;;8.20;;
9940;SDS011;5009;50.656;7.188;2024-01-06T11:13:20;9.47;;;8.37;;
9940;SDS011;5009;50.656;7.188;2024-01-06T11:15:47;8.07;;;7.27;;
9940;SDS011;5009;50.656;7.188;2024-01-06T11:18:31;8.57;;;7.63;;
9940;SDS011;5009;50.656;7.188;2024-01-06T11:23:39;11.87;;;7.40;;
9940;SDS011;5009;50.656;7.188;2024-01-06T11:26:09;8.97;;;6.87;;
9940;SDS011;5009;50.656;7.188;2024-01-06T11:28:43;9.80;;;8.33;;
9940;SDS011;5009;50.656;7.188;2024-01-06T11:31:12;8.27;;;6.80;;
9940;SDS011;5009;50.656;7.188;2024-01-06T11:33:44;8.83;;;7.57;;
9940;SDS011;5009;50.656;7.188;2024-01-06T11:36:12;7.73;;;6.83;;
9940;SDS011;5009;50.656;7.188;2024-01-06T11:38:40;7.87;;;6.80;;
9940;SDS011;5009;50.656;7.188;2024-01-06T11:41:06;7.70;;;6.90;;
9940;SDS011;5009;50.656;7.188;2024-01-06T11:43:37;8.00;;;7.20;;
9940;SDS011;5009;50.656;7.188;2024-01-06T11:46:05;8.20;;;7.03;;
9940;SDS011;5009;50.656;7.188;2024-01-06T11:48:32;8.03;;;7.23;;
9940;SDS011;5009;50.656;7.188;2024-01-06T11:50:58;8.53;;;7.20;;
9940;SDS011;5009;50.656;7.188;2024-01-06T11:53:26;8.40;;;7.60;;
9940;SDS011;5009;50.656;7.188;2024-01-06T11:55:52;8.90;;;7.90;;
9940;SDS011;5009;50.656;7.188;2024-01-06T11:58:18;9.77;;;8.33;;
9940;SDS011;5009;50.656;7.188;2024-01-06T12:00:43;8.80;;;7.60;;
9940;SDS011;5009;50.656;7.188;2024-01-06T12:03:19;9.90;;;7.77;;
9940;SDS011;5009;50.656;7.188;2024-01-06T12:05:45;10.20;;;8.10;;
9940;SDS011;5009;50.656;7.188;2024-01-06T12:08:10;9.60;;;8.53;;
9940;SDS011;5009;50.656;7.188;2024-01-06T12:10:36;10.07;;;8.63;;
9940;SDS011;5009;50.656;7.188;2024-01-06T12:13:05;11.47;;;9.67;;
9940;SDS011;5009;50.656;7.188;2024-01-06T12:15:35;11.33;;;9.47;;
9940;SDS011;5009;50.656;7.188;2024-01-06T12:18:05;10.63;;;9.10;;
9940;SDS011;5009;50.656;7.188;2024-01-06T12:20:31;12.07;;;9.10;;
9940;SDS011;5009;50.656;7.188;2024-01-06T12:22:57;10.83;;;9.50;;
9940;SDS011;5009;50.656;7.188;2024-01-06T12:25:24;11.17;;;9.23;;
9940;SDS011;5009;50.656;7.188;2024-01-06T12:27:51;12.47;;;10.27;;
9940;SDS011;5009;50.656;7.188;2024-01-06T12:30:18;14.10;;;10.10;;
9940;SDS011;5009;50.656;7.188;2024-01-06T12:32:46;11.03;;;9.13;;
9940;SDS011;5009;50.656;7.188;2024-01-06T12:35:14;10.43;;;9.13;;
9940;SDS011;5009;50.656;7.188;2024-01-06T12:37:43;9.40;;;8.40;;
9940;SDS011;5009;50.656;7.188;2024-01-06T12:40:10;12.00;;;9.10;;
9940;SDS011;5009;50.656;7.188;2024-01-06T12:42:37;10.27;;;8.17;;
9940;SDS011;5009;50.656;7.188;2024-01-06T12:45:03;13.17;;;9.53;;
9940;SDS011;5009;50.656;7.188;2024-01-06T12:47:29;12.40;;;9.37;;
9940;SDS011;5009;50.656;7.188;2024-01-06T12:49:55;11.27;;;9.20;;
9940;SDS011;5009;50.656;7.188;2024-01-06T12:52:20;12.53;;;9.87;;
9940;SDS011;5009;50.656;7.188;2024-01-06T12:54:46;11.47;;;9.87;;
9940;SDS011;5009;50.656;7.188;2024-01-06T12:57:11;11.00;;;9.40;;
9940;SDS011;5009;50.656;7.188;2024-01-06T12:59:37;10.83;;;9.37;;
9940;SDS011;5009;50.656;7.188;2024-01-06T13:02:03;12.00;;;9.80;;
9940;SDS011;5009;50.656;7.188;2024-01-06T13:04:28;10.80;;;9.07;;
9940;SDS011;5009;50.656;7.188;2024-01-06T13:06:54;12.10;;;9.93;;
9940;SDS011;5009;50.656;7.188;2024-01-06T13:09:20;11.60;;;9.53;;
9940;SDS011;5009;50.656;7.188;2024-01-06T13:11:48;10.70;;;9.60;;
9940;SDS011;5009;50.656;7.188;2024-01-06T13:14:15;12.03;;;8.73;;
9940;SDS011;5009;50.656;7.188;2024-01-06T13:16:41;11.93;;;9.10;;
9940;SDS011;5009;50.656;7.188;2024-01-06T13:19:07;11.03;;;8.93;;
9940;SDS011;5009;50.656;7.188;2024-01-06T13:21:32;11.00;;;8.90;;
9940;SDS011;5009;50.656;7.188;2024-01-06T13:23:58;11.90;;;9.10;;
9940;SDS011;5009;50.656;7.188;2024-01-06T13:26:26;11.50;;;9.03;;
9940;SDS011;5009;50.656;7.188;2024-01-06T13:28:53;10.83;;;9.00;;
9940;SDS011;5009;50.656;7.188;2024-01-06T13:31:18;10.47;;;8.37;;
9940;SDS011;5009;50.656;7.188;2024-01-06T13:33:45;12.40;;;9.70;;
9940;SDS011;5009;50.656;7.188;2024-01-06T13:36:11;9.67;;;8.53;;
9940;SDS011;5009;50.656;7.188;2024-01-06T13:38:36;11.33;;;8.43;;
9940;SDS011;5009;50.656;7.188;2024-01-06T13:41:02;11.90;;;9.57;;
9940;SDS011;5009;50.656;7.188;2024-01-06T13:43:28;12.27;;;9.03;;
9940;SDS011;5009;50.656;7.188;2024-01-06T13:45:53;11.63;;;9.97;;
9940;SDS011;5009;50.656;7.188;2024-01-06T13:48:19;12.37;;;9.67;;
9940;SDS011;5009;50.656;7.188;2024-01-06T13:50:45;11.93;;;10.20;;
9940;SDS011;5009;50.656;7.188;2024-01-06T13:53:11;13.87;;;10.07;;
9940;SDS011;5009;50.656;7.188;2024-01-06T13:55:37;13.90;;;10.60;;
9940;SDS011;5009;50.656;7.188;2024-01-06T13:58:03;12.83;;;10.10;;
9940;SDS011;5009;50.656;7.188;2024-01-06T14:00:29;12.73;;;10.83;;
9940;SDS011;5009;50.656;7.188;2024-01-06T14:02:55;13.47;;;10.33;;
9940;SDS011;5009;50.656;7.188;2024-01-06T14:05:21;12.43;;;10.47;;
9940;SDS011;5009;50.656;7.188;2024-01-06T14:07:47;12.57;;;10.73;;
9940;SDS011;5009;50.656;7.188;2024-01-06T14:10:15;14.53;;;10.40;;
9940;SDS011;5009;50.656;7.188;2024-01-06T14:12:41;12.27;;;9.23;;
9940;SDS011;5009;50.656;7.188;2024-01-06T14:15:07;11.57;;;9.67;;
9940;SDS011;5009;50.656;7.188;2024-01-06T14:17:33;11.17;;;9.63;;
9940;SDS011;5009;50.656;7.188;2024-01-06T14:19:59;11.77;;;8.87;;
9940;SDS011;5009;50.656;7.188;2024-01-06T14:22:25;11.87;;;8.93;;
9940;SDS011;5009;50.656;7.188;2024-01-06T14:24:51;13.40;;;9.80;;
9940;SDS011;5009;50.656;7.188;2024-01-06T14:27:17;11.47;;;9.30;;
9940;SDS011;5009;50.656;7.188;2024-01-06T14:29:42;11.77;;;8.87;;
9940;SDS011;5009;50.656;7.188;2024-01-06T14:32:08;12.27;;;9.23;;
9940;SDS011;5009;50.656;7.188;2024-01-06T14:34:34;11.70;;;9.33;;
9940;SDS011;5009;50.656;7.188;2024-01-06T14:37:00;10.53;;;9.03;;
9940;SDS011;5009;50.656;7.188;2024-01-06T14:39:25;11.90;;;9.30;;
9940;SDS011;5009;50.656;7.188;2024-01-06T14:41:51;12.63;;;10.03;;
9940;SDS011;5009;50.656;7.188;2024-01-06T14:44:17;13.23;;;10.50;;
9940;SDS011;5009;50.656;7.188;2024-01-06T14:46:44;13.00;;;9.77;;
9940;SDS011;5009;50.656;7.188;2024-01-06T14:49:15;14.17;;;10.57;;
9940;SDS011;5009;50.656;7.188;2024-01-06T14:51:41;12.90;;;10.23;;
9940;SDS011;5009;50.656;7.188;2024-01-06T14:54:07;14.20;;;10.90;;
9940;SDS011;5009;50.656;7.188;2024-01-06T14:56:33;12.93;;;9.00;;
9940;SDS011;5009;50.656;7.188;2024-01-06T14:59:02;13.47;;;10.57;;
9940;SDS011;5009;50.656;7.188;2024-01-06T15:01:27;12.07;;;9.60;;